Time;durP1;ratioP1;P1;durP2;ratioP2;P2;SDS_P1;SDS_P2;PMS_P1;PMS_P2;Temp;Humidity;BMP_temperature;BMP_pressure;BME280_temperature;BME280_humidity;BME280_pressure;Samples;Min_cycle;Max_cycle;Signal;HPM_P1;HPM_P2
2021/02/10 00:00:15;;;;;;;45.45;22.8;;;;;;;0.64;100;93625.45;;;;
2021/02/10 00:01:16;;;;;;;45.45;22.8;;;;;;;0.64;100;93625.45;;;;
2021/02/10 00:02:17;;;;;;;47.75;22.55;;;;;;;0.67;100;93630.83;;;;
2021/02/10 00:03:17;;;;;;;47.75;22.55;;;;;;;0.67;100;93630.83;;;;
2021/02/10 00:04:18;;;;;;;47.75;22.55;;;;;;;0.67;100;93630.83;;;;
2021/02/10 00:05:18;;;;;;;47.75;22.55;;;;;;;0.67;100;93630.83;;;;
2021/02/10 00:06:19;;;;;;;47.75;22.55;;;;;;;0.67;100;93630.83;;;;
2021/02/10 00:07:19;;;;;;;47.75;22.55;;;;;;;0.67;100;93630.83;;;;
2021/02/10 00:08:20;;;;;;;47.75;22.55;;;;;;;0.67;100;93630.83;;;;
2021/02/10 00:09:21;;;;;;;47.75;22.55;;;;;;;0.67;100;93630.83;;;;
2021/02/10 00:10:22;;;;;;;47.75;22.55;;;;;;;0.67;100;93630.83;;;;
2021/02/10 00:11:22;;;;;;;47.75;22.55;;;;;;;0.67;100;93630.83;;;;
2021/02/10 00:12:23;;;;;;;47.75;22.55;;;;;;;0.67;100;93630.83;;;;
2021/02/10 00:13:23;;;;;;;42.5;21.2;;;;;;;0.64;100;93622.9;;;;
2021/02/10 00:14:24;;;;;;;42.5;21.2;;;;;;;0.64;100;93622.9;;;;
2021/02/10 00:15:24;;;;;;;42.5;21.2;;;;;;;0.64;100;93622.9;;;;
2021/02/10 00:16:25;;;;;;;42.5;21.2;;;;;;;0.64;100;93622.9;;;;
2021/02/10 00:17:25;;;;;;;42.5;21.2;;;;;;;0.64;100;93622.9;;;;
2021/02/10 00:18:26;;;;;;;42.5;21.2;;;;;;;0.64;100;93622.9;;;;
2021/02/10 00:19:26;;;;;;;42.5;21.2;;;;;;;0.64;100;93622.9;;;;
2021/02/10 00:20:27;;;;;;;42.5;21.2;;;;;;;0.64;100;93622.9;;;;
2021/02/10 00:21:27;;;;;;;42.5;21.2;;;;;;;0.64;100;93622.9;;;;
2021/02/10 00:22:28;;;;;;;42.5;21.2;;;;;;;0.64;100;93622.9;;;;
2021/02/10 00:23:28;;;;;;;51.35001;22.35;;;;;;;0.61;100;93608.73;;;;
2021/02/10 00:24:28;;;;;;;51.35001;22.35;;;;;;;0.61;100;93608.73;;;;
2021/02/10 00:25:29;;;;;;;51.35001;22.35;;;;;;;0.61;100;93608.73;;;;
2021/02/10 00:26:30;;;;;;;51.35001;22.35;;;;;;;0.61;100;93608.73;;;;
2021/02/10 00:27:30;;;;;;;51.35001;22.35;;;;;;;0.61;100;93608.73;;;;
2021/02/10 00:28:31;;;;;;;51.35001;22.35;;;;;;;0.61;100;93608.73;;;;
2021/02/10 00:29:31;;;;;;;51.35001;22.35;;;;;;;0.61;100;93608.73;;;;
2021/02/10 00:30:32;;;;;;;51.35001;22.35;;;;;;;0.61;100;93608.73;;;;
2021/02/10 00:31:34;;;;;;;51.35001;22.35;;;;;;;0.61;100;93608.73;;;;
2021/02/10 00:32:35;;;;;;;51.35001;22.35;;;;;;;0.61;100;93608.73;;;;
2021/02/10 00:33:35;;;;;;;51.35001;22.35;;;;;;;0.61;100;93608.73;;;;
2021/02/10 00:34:37;;;;;;;54.30001;24.15;;;;;;;0.59;100;93618.76;;;;
2021/02/10 00:35:37;;;;;;;54.30001;24.15;;;;;;;0.59;100;93618.76;;;;
2021/02/10 00:36:38;;;;;;;54.30001;24.15;;;;;;;0.59;100;93618.76;;;;
2021/02/10 00:37:38;;;;;;;54.30001;24.15;;;;;;;0.59;100;93618.76;;;;
2021/02/10 00:38:39;;;;;;;54.30001;24.15;;;;;;;0.59;100;93618.76;;;;
2021/02/10 00:39:39;;;;;;;54.30001;24.15;;;;;;;0.59;100;93618.76;;;;
2021/02/10 00:40:40;;;;;;;54.30001;24.15;;;;;;;0.59;100;93618.76;;;;
2021/02/10 00:41:40;;;;;;;54.30001;24.15;;;;;;;0.59;100;93618.76;;;;
2021/02/10 00:42:41;;;;;;;54.30001;24.15;;;;;;;0.59;100;93618.76;;;;
2021/02/10 00:43:41;;;;;;;54.30001;24.15;;;;;;;0.59;100;93618.76;;;;
2021/02/10 00:44:42;;;;;;;55.99999;25.8;;;;;;;0.6;100;93605.67;;;;
2021/02/10 00:45:43;;;;;;;55.99999;25.8;;;;;;;0.6;100;93605.67;;;;
2021/02/10 00:46:43;;;;;;;55.99999;25.8;;;;;;;0.6;100;93605.67;;;;
2021/02/10 00:47:44;;;;;;;55.99999;25.8;;;;;;;0.6;100;93605.67;;;;
2021/02/10 00:48:45;;;;;;;55.99999;25.8;;;;;;;0.6;100;93605.67;;;;
2021/02/10 00:49:45;;;;;;;55.99999;25.8;;;;;;;0.6;100;93605.67;;;;
2021/02/10 00:50:46;;;;;;;55.99999;25.8;;;;;;;0.6;100;93605.67;;;;
2021/02/10 00:51:47;;;;;;;55.99999;25.8;;;;;;;0.6;100;93605.67;;;;
2021/02/10 00:52:48;;;;;;;55.99999;25.8;;;;;;;0.6;100;93605.67;;;;
2021/02/10 00:53:48;;;;;;;55.99999;25.8;;;;;;;0.6;100;93605.67;;;;
2021/02/10 00:54:49;;;;;;;55.99999;25.8;;;;;;;0.6;100;93605.67;;;;
2021/02/10 00:55:49;;;;;;;54.2;25.3;;;;;;;0.69;100;93599.56;;;;
2021/02/10 00:56:50;;;;;;;54.2;25.3;;;;;;;0.69;100;93599.56;;;;
2021/02/10 00:57:50;;;;;;;54.2;25.3;;;;;;;0.69;100;93599.56;;;;
2021/02/10 00:58:51;;;;;;;54.2;25.3;;;;;;;0.69;100;93599.56;;;;
2021/02/10 00:59:51;;;;;;;54.2;25.3;;;;;;;0.69;100;93599.56;;;;
2021/02/10 01:00:52;;;;;;;54.2;25.3;;;;;;;0.69;100;93599.56;;;;
2021/02/10 01:01:52;;;;;;;54.2;25.3;;;;;;;0.69;100;93599.56;;;;
2021/02/10 01:02:52;;;;;;;54.2;25.3;;;;;;;0.69;100;93599.56;;;;
2021/02/10 01:03:53;;;;;;;54.2;25.3;;;;;;;0.69;100;93599.56;;;;
2021/02/10 01:04:54;;;;;;;54.2;25.3;;;;;;;0.69;100;93599.56;;;;
2021/02/10 01:05:54;;;;;;;57.45;26.55;;;;;;;0.73;100;93600.35;;;;
2021/02/10 01:06:55;;;;;;;57.45;26.55;;;;;;;0.73;100;93600.35;;;;
2021/02/10 01:07:55;;;;;;;57.45;26.55;;;;;;;0.73;100;93600.35;;;;
2021/02/10 01:08:56;;;;;;;57.45;26.55;;;;;;;0.73;100;93600.35;;;;
2021/02/10 01:09:56;;;;;;;57.45;26.55;;;;;;;0.73;100;93600.35;;;;
2021/02/10 01:10:57;;;;;;;57.45;26.55;;;;;;;0.73;100;93600.35;;;;
2021/02/10 01:11:57;;;;;;;57.45;26.55;;;;;;;0.73;100;93600.35;;;;
2021/02/10 01:12:59;;;;;;;57.45;26.55;;;;;;;0.73;100;93600.35;;;;
2021/02/10 01:14:00;;;;;;;57.45;26.55;;;;;;;0.73;100;93600.35;;;;
2021/02/10 01:15:00;;;;;;;57.45;26.55;;;;;;;0.73;100;93600.35;;;;
2021/02/10 01:16:01;;;;;;;57.45;26.55;;;;;;;0.73;100;93600.35;;;;
2021/02/10 01:17:01;;;;;;;57.55;26.75;;;;;;;0.74;100;93593.9;;;;
2021/02/10 01:18:02;;;;;;;57.55;26.75;;;;;;;0.74;100;93593.9;;;;
2021/02/10 01:19:03;;;;;;;57.55;26.75;;;;;;;0.74;100;93593.9;;;;
2021/02/10 01:20:03;;;;;;;57.55;26.75;;;;;;;0.74;100;93593.9;;;;
2021/02/10 01:21:05;;;;;;;57.55;26.75;;;;;;;0.74;100;93593.9;;;;
2021/02/10 01:22:06;;;;;;;57.55;26.75;;;;;;;0.74;100;93593.9;;;;
2021/02/10 01:23:06;;;;;;;57.55;26.75;;;;;;;0.74;100;93593.9;;;;
2021/02/10 01:24:06;;;;;;;57.55;26.75;;;;;;;0.74;100;93593.9;;;;
2021/02/10 01:25:07;;;;;;;57.55;26.75;;;;;;;0.74;100;93593.9;;;;
2021/02/10 01:26:09;;;;;;;57.55;26.75;;;;;;;0.74;100;93593.9;;;;
2021/02/10 01:27:09;;;;;;;48.25;22.85;;;;;;;0.68;100;93591.72;;;;
2021/02/10 01:28:10;;;;;;;48.25;22.85;;;;;;;0.68;100;93591.72;;;;
2021/02/10 01:29:10;;;;;;;48.25;22.85;;;;;;;0.68;100;93591.72;;;;
2021/02/10 01:30:11;;;;;;;48.25;22.85;;;;;;;0.68;100;93591.72;;;;
2021/02/10 01:31:13;;;;;;;48.25;22.85;;;;;;;0.68;100;93591.72;;;;
2021/02/10 01:32:13;;;;;;;48.25;22.85;;;;;;;0.68;100;93591.72;;;;
2021/02/10 01:33:14;;;;;;;48.25;22.85;;;;;;;0.68;100;93591.72;;;;
2021/02/10 01:34:14;;;;;;;48.25;22.85;;;;;;;0.68;100;93591.72;;;;
2021/02/10 01:35:15;;;;;;;48.25;22.85;;;;;;;0.68;100;93591.72;;;;
2021/02/10 01:36:15;;;;;;;48.25;22.85;;;;;;;0.68;100;93591.72;;;;
2021/02/10 01:37:16;;;;;;;48.25;22.85;;;;;;;0.68;100;93591.72;;;;
2021/02/10 01:38:16;;;;;;;47.5;24.15;;;;;;;0.67;100;93591.82;;;;
2021/02/10 01:39:17;;;;;;;47.5;24.15;;;;;;;0.67;100;93591.82;;;;
2021/02/10 01:40:17;;;;;;;47.5;24.15;;;;;;;0.67;100;93591.82;;;;
2021/02/10 01:41:18;;;;;;;47.5;24.15;;;;;;;0.67;100;93591.82;;;;
2021/02/10 01:42:18;;;;;;;47.5;24.15;;;;;;;0.67;100;93591.82;;;;
2021/02/10 01:43:19;;;;;;;47.5;24.15;;;;;;;0.67;100;93591.82;;;;
2021/02/10 01:44:19;;;;;;;47.5;24.15;;;;;;;0.67;100;93591.82;;;;
2021/02/10 01:45:20;;;;;;;47.5;24.15;;;;;;;0.67;100;93591.82;;;;
2021/02/10 01:46:22;;;;;;;47.5;24.15;;;;;;;0.67;100;93591.82;;;;
2021/02/10 01:47:23;;;;;;;47.5;24.15;;;;;;;0.67;100;93591.82;;;;
2021/02/10 01:48:23;;;;;;;47.5;24.15;;;;;;;0.67;100;93591.82;;;;
2021/02/10 01:49:24;;;;;;;49.55;22.65;;;;;;;0.69;100;93578.32;;;;
2021/02/10 01:50:24;;;;;;;49.55;22.65;;;;;;;0.69;100;93578.32;;;;
2021/02/10 01:51:25;;;;;;;49.55;22.65;;;;;;;0.69;100;93578.32;;;;
2021/02/10 01:52:26;;;;;;;49.55;22.65;;;;;;;0.69;100;93578.32;;;;
2021/02/10 01:53:27;;;;;;;49.55;22.65;;;;;;;0.69;100;93578.32;;;;
2021/02/10 01:54:28;;;;;;;49.55;22.65;;;;;;;0.69;100;93578.32;;;;
2021/02/10 01:55:29;;;;;;;49.55;22.65;;;;;;;0.69;100;93578.32;;;;
2021/02/10 01:56:31;;;;;;;49.55;22.65;;;;;;;0.69;100;93578.32;;;;
2021/02/10 01:57:32;;;;;;;49.55;22.65;;;;;;;0.69;100;93578.32;;;;
2021/02/10 01:58:33;;;;;;;49.55;22.65;;;;;;;0.69;100;93578.32;;;;
2021/02/10 01:59:34;;;;;;;45.6;22.25;;;;;;;0.68;100;93553.73;;;;
2021/02/10 02:00:36;;;;;;;45.6;22.25;;;;;;;0.68;100;93553.73;;;;
2021/02/10 02:01:36;;;;;;;45.6;22.25;;;;;;;0.68;100;93553.73;;;;
2021/02/10 02:02:37;;;;;;;45.6;22.25;;;;;;;0.68;100;93553.73;;;;
2021/02/10 02:03:38;;;;;;;45.6;22.25;;;;;;;0.68;100;93553.73;;;;
2021/02/10 02:04:38;;;;;;;45.6;22.25;;;;;;;0.68;100;93553.73;;;;
2021/02/10 02:05:38;;;;;;;45.6;22.25;;;;;;;0.68;100;93553.73;;;;
2021/02/10 02:06:39;;;;;;;45.6;22.25;;;;;;;0.68;100;93553.73;;;;
2021/02/10 02:07:39;;;;;;;45.6;22.25;;;;;;;0.68;100;93553.73;;;;
2021/02/10 02:08:40;;;;;;;45.6;22.25;;;;;;;0.68;100;93553.73;;;;
2021/02/10 02:09:41;;;;;;;45.6;22.25;;;;;;;0.68;100;93553.73;;;;
2021/02/10 02:10:41;;;;;;;38.25;20.1;;;;;;;0.58;100;93529.91;;;;
2021/02/10 02:11:42;;;;;;;38.25;20.1;;;;;;;0.58;100;93529.91;;;;
2021/02/10 02:12:43;;;;;;;38.25;20.1;;;;;;;0.58;100;93529.91;;;;
2021/02/10 02:13:43;;;;;;;38.25;20.1;;;;;;;0.58;100;93529.91;;;;
2021/02/10 02:14:44;;;;;;;38.25;20.1;;;;;;;0.58;100;93529.91;;;;
2021/02/10 02:15:44;;;;;;;38.25;20.1;;;;;;;0.58;100;93529.91;;;;
2021/02/10 02:16:45;;;;;;;38.25;20.1;;;;;;;0.58;100;93529.91;;;;
2021/02/10 02:17:45;;;;;;;38.25;20.1;;;;;;;0.58;100;93529.91;;;;
2021/02/10 02:18:46;;;;;;;38.25;20.1;;;;;;;0.58;100;93529.91;;;;
2021/02/10 02:19:47;;;;;;;38.25;20.1;;;;;;;0.58;100;93529.91;;;;
2021/02/10 02:20:47;;;;;;;47.35;22.4;;;;;;;0.56;100;93513.37;;;;
2021/02/10 02:21:48;;;;;;;47.35;22.4;;;;;;;0.56;100;93513.37;;;;
2021/02/10 02:22:48;;;;;;;47.35;22.4;;;;;;;0.56;100;93513.37;;;;
2021/02/10 02:23:52;;;;;;;47.35;22.4;;;;;;;0.56;100;93513.37;;;;
2021/02/10 02:24:52;;;;;;;47.35;22.4;;;;;;;0.56;100;93513.37;;;;
2021/02/10 02:25:53;;;;;;;47.35;22.4;;;;;;;0.56;100;93513.37;;;;
2021/02/10 02:26:53;;;;;;;47.35;22.4;;;;;;;0.56;100;93513.37;;;;
2021/02/10 02:27:54;;;;;;;47.35;22.4;;;;;;;0.56;100;93513.37;;;;
2021/02/10 02:28:55;;;;;;;47.35;22.4;;;;;;;0.56;100;93513.37;;;;
2021/02/10 02:29:55;;;;;;;47.35;22.4;;;;;;;0.56;100;93513.37;;;;
2021/02/10 02:30:56;;;;;;;47.35;22.4;;;;;;;0.56;100;93513.37;;;;
2021/02/10 02:31:56;;;;;;;48.05;22.95;;;;;;;0.54;100;93511.86;;;;
2021/02/10 02:32:58;;;;;;;48.05;22.95;;;;;;;0.54;100;93511.86;;;;
2021/02/10 02:33:59;;;;;;;48.05;22.95;;;;;;;0.54;100;93511.86;;;;
2021/02/10 02:34:59;;;;;;;48.05;22.95;;;;;;;0.54;100;93511.86;;;;
2021/02/10 02:36:00;;;;;;;48.05;22.95;;;;;;;0.54;100;93511.86;;;;
2021/02/10 02:37:01;;;;;;;48.05;22.95;;;;;;;0.54;100;93511.86;;;;
2021/02/10 02:38:01;;;;;;;48.05;22.95;;;;;;;0.54;100;93511.86;;;;
2021/02/10 02:39:02;;;;;;;48.05;22.95;;;;;;;0.54;100;93511.86;;;;
2021/02/10 02:40:03;;;;;;;48.05;22.95;;;;;;;0.54;100;93511.86;;;;
2021/02/10 02:41:05;;;;;;;48.05;22.95;;;;;;;0.54;100;93511.86;;;;
2021/02/10 02:42:06;;;;;;;48.29999;22.3;;;;;;;0.52;100;93498.02;;;;
2021/02/10 02:43:08;;;;;;;48.29999;22.3;;;;;;;0.52;100;93498.02;;;;
2021/02/10 02:44:09;;;;;;;48.29999;22.3;;;;;;;0.52;100;93498.02;;;;
2021/02/10 02:45:10;;;;;;;48.29999;22.3;;;;;;;0.52;100;93498.02;;;;
2021/02/10 02:46:12;;;;;;;48.29999;22.3;;;;;;;0.52;100;93498.02;;;;
2021/02/10 02:47:13;;;;;;;48.29999;22.3;;;;;;;0.52;100;93498.02;;;;
2021/02/10 02:48:13;;;;;;;48.29999;22.3;;;;;;;0.52;100;93498.02;;;;
2021/02/10 02:49:14;;;;;;;48.29999;22.3;;;;;;;0.52;100;93498.02;;;;
2021/02/10 02:50:15;;;;;;;48.29999;22.3;;;;;;;0.52;100;93498.02;;;;
2021/02/10 02:51:15;;;;;;;48.29999;22.3;;;;;;;0.52;100;93498.02;;;;
2021/02/10 02:52:16;;;;;;;48.29999;22.3;;;;;;;0.52;100;93498.02;;;;
2021/02/10 02:53:16;;;;;;;45.55;21.09999;;;;;;;0.47;100;93500.5;;;;
2021/02/10 02:54:17;;;;;;;45.55;21.09999;;;;;;;0.47;100;93500.5;;;;
2021/02/10 02:55:17;;;;;;;45.55;21.09999;;;;;;;0.47;100;93500.5;;;;
2021/02/10 02:56:18;;;;;;;45.55;21.09999;;;;;;;0.47;100;93500.5;;;;
2021/02/10 02:57:18;;;;;;;45.55;21.09999;;;;;;;0.47;100;93500.5;;;;
2021/02/10 02:58:19;;;;;;;45.55;21.09999;;;;;;;0.47;100;93500.5;;;;
2021/02/10 02:59:19;;;;;;;45.55;21.09999;;;;;;;0.47;100;93500.5;;;;
2021/02/10 03:00:20;;;;;;;45.55;21.09999;;;;;;;0.47;100;93500.5;;;;
2021/02/10 03:01:20;;;;;;;45.55;21.09999;;;;;;;0.47;100;93500.5;;;;
2021/02/10 03:02:21;;;;;;;45.55;21.09999;;;;;;;0.47;100;93500.5;;;;
2021/02/10 03:03:21;;;;;;;48.8;22.65;;;;;;;0.4;100;93484.74;;;;
2021/02/10 03:04:22;;;;;;;48.8;22.65;;;;;;;0.4;100;93484.74;;;;
2021/02/10 03:05:22;;;;;;;48.8;22.65;;;;;;;0.4;100;93484.74;;;;
2021/02/10 03:06:23;;;;;;;48.8;22.65;;;;;;;0.4;100;93484.74;;;;
2021/02/10 03:07:25;;;;;;;48.8;22.65;;;;;;;0.4;100;93484.74;;;;
2021/02/10 03:08:26;;;;;;;48.8;22.65;;;;;;;0.4;100;93484.74;;;;
2021/02/10 03:09:26;;;;;;;48.8;22.65;;;;;;;0.4;100;93484.74;;;;
2021/02/10 03:10:27;;;;;;;48.8;22.65;;;;;;;0.4;100;93484.74;;;;
2021/02/10 03:11:27;;;;;;;48.8;22.65;;;;;;;0.4;100;93484.74;;;;
2021/02/10 03:12:27;;;;;;;48.8;22.65;;;;;;;0.4;100;93484.74;;;;
2021/02/10 03:13:28;;;;;;;48.8;22.65;;;;;;;0.4;100;93484.74;;;;
2021/02/10 03:14:28;;;;;;;51.25;23.05;;;;;;;0.36;100;93483.98;;;;
2021/02/10 03:15:29;;;;;;;51.25;23.05;;;;;;;0.36;100;93483.98;;;;
2021/02/10 03:16:30;;;;;;;51.25;23.05;;;;;;;0.36;100;93483.98;;;;
2021/02/10 03:17:31;;;;;;;51.25;23.05;;;;;;;0.36;100;93483.98;;;;
2021/02/10 03:18:31;;;;;;;51.25;23.05;;;;;;;0.36;100;93483.98;;;;
2021/02/10 03:19:32;;;;;;;51.25;23.05;;;;;;;0.36;100;93483.98;;;;
2021/02/10 03:20:32;;;;;;;51.25;23.05;;;;;;;0.36;100;93483.98;;;;
2021/02/10 03:21:33;;;;;;;51.25;23.05;;;;;;;0.36;100;93483.98;;;;
2021/02/10 03:22:34;;;;;;;51.25;23.05;;;;;;;0.36;100;93483.98;;;;
2021/02/10 03:23:34;;;;;;;51.25;23.05;;;;;;;0.36;100;93483.98;;;;
2021/02/10 03:24:35;;;;;;;49.65001;22.85;;;;;;;0.41;100;93483.72;;;;
2021/02/10 03:25:35;;;;;;;49.65001;22.85;;;;;;;0.41;100;93483.72;;;;
2021/02/10 03:26:36;;;;;;;49.65001;22.85;;;;;;;0.41;100;93483.72;;;;
2021/02/10 03:27:37;;;;;;;49.65001;22.85;;;;;;;0.41;100;93483.72;;;;
2021/02/10 03:28:37;;;;;;;49.65001;22.85;;;;;;;0.41;100;93483.72;;;;
2021/02/10 03:29:38;;;;;;;49.65001;22.85;;;;;;;0.41;100;93483.72;;;;
2021/02/10 03:30:38;;;;;;;49.65001;22.85;;;;;;;0.41;100;93483.72;;;;
2021/02/10 03:31:39;;;;;;;49.65001;22.85;;;;;;;0.41;100;93483.72;;;;
2021/02/10 03:32:40;;;;;;;49.65001;22.85;;;;;;;0.41;100;93483.72;;;;
2021/02/10 03:33:40;;;;;;;49.65001;22.85;;;;;;;0.41;100;93483.72;;;;
2021/02/10 03:34:41;;;;;;;49.65001;22.85;;;;;;;0.41;100;93483.72;;;;
2021/02/10 03:35:42;;;;;;;46.75;21.8;;;;;;;0.4;100;93492.6;;;;
2021/02/10 03:36:42;;;;;;;46.75;21.8;;;;;;;0.4;100;93492.6;;;;
2021/02/10 03:37:43;;;;;;;46.75;21.8;;;;;;;0.4;100;93492.6;;;;
2021/02/10 03:38:43;;;;;;;46.75;21.8;;;;;;;0.4;100;93492.6;;;;
2021/02/10 03:39:44;;;;;;;46.75;21.8;;;;;;;0.4;100;93492.6;;;;
2021/02/10 03:40:44;;;;;;;46.75;21.8;;;;;;;0.4;100;93492.6;;;;
2021/02/10 03:41:45;;;;;;;46.75;21.8;;;;;;;0.4;100;93492.6;;;;
2021/02/10 03:42:46;;;;;;;46.75;21.8;;;;;;;0.4;100;93492.6;;;;
2021/02/10 03:43:47;;;;;;;46.75;21.8;;;;;;;0.4;100;93492.6;;;;
2021/02/10 03:44:47;;;;;;;46.75;21.8;;;;;;;0.4;100;93492.6;;;;
2021/02/10 03:45:48;;;;;;;46.75;21.8;;;;;;;0.4;100;93492.6;;;;
2021/02/10 03:46:48;;;;;;;50.35;23.45;;;;;;;0.36;100;93484.77;;;;
2021/02/10 03:47:49;;;;;;;50.35;23.45;;;;;;;0.36;100;93484.77;;;;
2021/02/10 03:48:49;;;;;;;50.35;23.45;;;;;;;0.36;100;93484.77;;;;
2021/02/10 03:49:50;;;;;;;50.35;23.45;;;;;;;0.36;100;93484.77;;;;
2021/02/10 03:50:50;;;;;;;50.35;23.45;;;;;;;0.36;100;93484.77;;;;
2021/02/10 03:51:51;;;;;;;50.35;23.45;;;;;;;0.36;100;93484.77;;;;
2021/02/10 03:52:51;;;;;;;50.35;23.45;;;;;;;0.36;100;93484.77;;;;
2021/02/10 03:53:52;;;;;;;50.35;23.45;;;;;;;0.36;100;93484.77;;;;
2021/02/10 03:54:52;;;;;;;50.35;23.45;;;;;;;0.36;100;93484.77;;;;
2021/02/10 03:55:53;;;;;;;50.35;23.45;;;;;;;0.36;100;93484.77;;;;
2021/02/10 03:56:53;;;;;;;48.9;22.45;;;;;;;0.35;100;93475.7;;;;
2021/02/10 03:57:54;;;;;;;48.9;22.45;;;;;;;0.35;100;93475.7;;;;
2021/02/10 03:58:54;;;;;;;48.9;22.45;;;;;;;0.35;100;93475.7;;;;
2021/02/10 03:59:55;;;;;;;48.9;22.45;;;;;;;0.35;100;93475.7;;;;
2021/02/10 04:00:55;;;;;;;48.9;22.45;;;;;;;0.35;100;93475.7;;;;
2021/02/10 04:01:56;;;;;;;48.9;22.45;;;;;;;0.35;100;93475.7;;;;
2021/02/10 04:02:56;;;;;;;48.9;22.45;;;;;;;0.35;100;93475.7;;;;
2021/02/10 04:03:57;;;;;;;48.9;22.45;;;;;;;0.35;100;93475.7;;;;
2021/02/10 04:04:57;;;;;;;48.9;22.45;;;;;;;0.35;100;93475.7;;;;
2021/02/10 04:05:58;;;;;;;48.9;22.45;;;;;;;0.35;100;93475.7;;;;
2021/02/10 04:06:59;;;;;;;48.9;22.45;;;;;;;0.35;100;93475.7;;;;
2021/02/10 04:07:59;;;;;;;49.4;22.85;;;;;;;0.31;100;93460.83;;;;
2021/02/10 04:09:00;;;;;;;49.4;22.85;;;;;;;0.31;100;93460.83;;;;
2021/02/10 04:10:00;;;;;;;49.4;22.85;;;;;;;0.31;100;93460.83;;;;
2021/02/10 04:11:01;;;;;;;49.4;22.85;;;;;;;0.31;100;93460.83;;;;
2021/02/10 04:12:02;;;;;;;49.4;22.85;;;;;;;0.31;100;93460.83;;;;
2021/02/10 04:13:03;;;;;;;49.4;22.85;;;;;;;0.31;100;93460.83;;;;
2021/02/10 04:14:04;;;;;;;49.4;22.85;;;;;;;0.31;100;93460.83;;;;
2021/02/10 04:15:04;;;;;;;49.4;22.85;;;;;;;0.31;100;93460.83;;;;
2021/02/10 04:16:07;;;;;;;49.4;22.85;;;;;;;0.31;100;93460.83;;;;
2021/02/10 04:17:07;;;;;;;49.4;22.85;;;;;;;0.31;100;93460.83;;;;
2021/02/10 04:18:08;;;;;;;48.65;21.4;;;;;;;0.26;100;93465.07;;;;
2021/02/10 04:19:09;;;;;;;48.65;21.4;;;;;;;0.26;100;93465.07;;;;
2021/02/10 04:20:09;;;;;;;48.65;21.4;;;;;;;0.26;100;93465.07;;;;
2021/02/10 04:21:11;;;;;;;48.65;21.4;;;;;;;0.26;100;93465.07;;;;
2021/02/10 04:22:11;;;;;;;48.65;21.4;;;;;;;0.26;100;93465.07;;;;
2021/02/10 04:23:12;;;;;;;48.65;21.4;;;;;;;0.26;100;93465.07;;;;
2021/02/10 04:24:12;;;;;;;48.65;21.4;;;;;;;0.26;100;93465.07;;;;
2021/02/10 04:25:13;;;;;;;48.65;21.4;;;;;;;0.26;100;93465.07;;;;
2021/02/10 04:26:13;;;;;;;48.65;21.4;;;;;;;0.26;100;93465.07;;;;
2021/02/10 04:27:14;;;;;;;48.65;21.4;;;;;;;0.26;100;93465.07;;;;
2021/02/10 04:28:15;;;;;;;48.65;21.4;;;;;;;0.26;100;93465.07;;;;
2021/02/10 04:29:15;;;;;;;45.35;21.75;;;;;;;0.23;100;93455.31;;;;
2021/02/10 04:30:16;;;;;;;45.35;21.75;;;;;;;0.23;100;93455.31;;;;
2021/02/10 04:31:17;;;;;;;45.35;21.75;;;;;;;0.23;100;93455.31;;;;
2021/02/10 04:32:18;;;;;;;45.35;21.75;;;;;;;0.23;100;93455.31;;;;
2021/02/10 04:33:18;;;;;;;45.35;21.75;;;;;;;0.23;100;93455.31;;;;
2021/02/10 04:34:19;;;;;;;45.35;21.75;;;;;;;0.23;100;93455.31;;;;
2021/02/10 04:35:19;;;;;;;45.35;21.75;;;;;;;0.23;100;93455.31;;;;
2021/02/10 04:36:20;;;;;;;45.35;21.75;;;;;;;0.23;100;93455.31;;;;
2021/02/10 04:37:20;;;;;;;45.35;21.75;;;;;;;0.23;100;93455.31;;;;
2021/02/10 04:38:21;;;;;;;45.35;21.75;;;;;;;0.23;100;93455.31;;;;
2021/02/10 04:39:22;;;;;;;46.2;21.85;;;;;;;0.25;100;93451.93;;;;
2021/02/10 04:40:22;;;;;;;46.2;21.85;;;;;;;0.25;100;93451.93;;;;
2021/02/10 04:41:25;;;;;;;46.2;21.85;;;;;;;0.25;100;93451.93;;;;
2021/02/10 04:42:25;;;;;;;46.2;21.85;;;;;;;0.25;100;93451.93;;;;
2021/02/10 04:43:26;;;;;;;46.2;21.85;;;;;;;0.25;100;93451.93;;;;
2021/02/10 04:44:27;;;;;;;46.2;21.85;;;;;;;0.25;100;93451.93;;;;
2021/02/10 04:45:27;;;;;;;46.2;21.85;;;;;;;0.25;100;93451.93;;;;
2021/02/10 04:46:28;;;;;;;46.2;21.85;;;;;;;0.25;100;93451.93;;;;
2021/02/10 04:47:35;;;;;;;46.2;21.85;;;;;;;0.25;100;93451.93;;;;
2021/02/10 04:48:37;;;;;;;46.2;21.85;;;;;;;0.25;100;93451.93;;;;
2021/02/10 04:49:39;;;;;;;46.2;21.85;;;;;;;0.25;100;93451.93;;;;
2021/02/10 04:50:40;;;;;;;48.35;21.54999;;;;;;;0.27;100;93455.56;;;;
2021/02/10 04:51:41;;;;;;;48.35;21.54999;;;;;;;0.27;100;93455.56;;;;
2021/02/10 04:52:45;;;;;;;48.35;21.54999;;;;;;;0.27;100;93455.56;;;;
2021/02/10 04:53:45;;;;;;;48.35;21.54999;;;;;;;0.27;100;93455.56;;;;
2021/02/10 04:54:47;;;;;;;48.35;21.54999;;;;;;;0.27;100;93455.56;;;;
2021/02/10 04:55:52;;;;;;;48.35;21.54999;;;;;;;0.27;100;93455.56;;;;
2021/02/10 04:56:54;;;;;;;48.35;21.54999;;;;;;;0.27;100;93455.56;;;;
2021/02/10 04:57:54;;;;;;;48.35;21.54999;;;;;;;0.27;100;93455.56;;;;
2021/02/10 04:58:55;;;;;;;48.35;21.54999;;;;;;;0.27;100;93455.56;;;;
2021/02/10 04:59:56;;;;;;;48.35;21.54999;;;;;;;0.27;100;93455.56;;;;
2021/02/10 05:00:56;;;;;;;45.1;20.5;;;;;;;0.29;100;93452.31;;;;
2021/02/10 05:01:57;;;;;;;45.1;20.5;;;;;;;0.29;100;93452.31;;;;
2021/02/10 05:02:57;;;;;;;45.1;20.5;;;;;;;0.29;100;93452.31;;;;
2021/02/10 05:03:59;;;;;;;45.1;20.5;;;;;;;0.29;100;93452.31;;;;
2021/02/10 05:04:59;;;;;;;45.1;20.5;;;;;;;0.29;100;93452.31;;;;
2021/02/10 05:06:00;;;;;;;45.1;20.5;;;;;;;0.29;100;93452.31;;;;
2021/02/10 05:07:02;;;;;;;45.1;20.5;;;;;;;0.29;100;93452.31;;;;
2021/02/10 05:08:02;;;;;;;45.1;20.5;;;;;;;0.29;100;93452.31;;;;
2021/02/10 05:09:04;;;;;;;45.1;20.5;;;;;;;0.29;100;93452.31;;;;
2021/02/10 05:10:06;;;;;;;45.1;20.5;;;;;;;0.29;100;93452.31;;;;
2021/02/10 05:11:08;;;;;;;45.1;20.5;;;;;;;0.29;100;93452.31;;;;
2021/02/10 05:12:14;;;;;;;42.75;20.9;;;;;;;0.27;100;93453.83;;;;
2021/02/10 05:13:17;;;;;;;42.75;20.9;;;;;;;0.27;100;93453.83;;;;
2021/02/10 05:14:17;;;;;;;42.75;20.9;;;;;;;0.27;100;93453.83;;;;
2021/02/10 05:15:22;;;;;;;42.75;20.9;;;;;;;0.27;100;93453.83;;;;
2021/02/10 05:16:22;;;;;;;42.75;20.9;;;;;;;0.27;100;93453.83;;;;
2021/02/10 05:17:23;;;;;;;42.75;20.9;;;;;;;0.27;100;93453.83;;;;
2021/02/10 05:18:28;;;;;;;42.75;20.9;;;;;;;0.27;100;93453.83;;;;
2021/02/10 05:19:28;;;;;;;42.75;20.9;;;;;;;0.27;100;93453.83;;;;
2021/02/10 05:20:29;;;;;;;42.75;20.9;;;;;;;0.27;100;93453.83;;;;
2021/02/10 05:21:29;;;;;;;42.75;20.9;;;;;;;0.27;100;93453.83;;;;
2021/02/10 05:22:30;;;;;;;45.24999;20.5;;;;;;;0.23;100;93454.91;;;;
2021/02/10 05:23:30;;;;;;;45.24999;20.5;;;;;;;0.23;100;93454.91;;;;
2021/02/10 05:24:31;;;;;;;45.24999;20.5;;;;;;;0.23;100;93454.91;;;;
2021/02/10 05:25:32;;;;;;;45.24999;20.5;;;;;;;0.23;100;93454.91;;;;
2021/02/10 05:26:33;;;;;;;45.24999;20.5;;;;;;;0.23;100;93454.91;;;;
2021/02/10 05:27:33;;;;;;;45.24999;20.5;;;;;;;0.23;100;93454.91;;;;
2021/02/10 05:28:34;;;;;;;45.24999;20.5;;;;;;;0.23;100;93454.91;;;;
2021/02/10 05:29:34;;;;;;;45.24999;20.5;;;;;;;0.23;100;93454.91;;;;
2021/02/10 05:30:35;;;;;;;45.24999;20.5;;;;;;;0.23;100;93454.91;;;;
2021/02/10 05:31:35;;;;;;;45.24999;20.5;;;;;;;0.23;100;93454.91;;;;
2021/02/10 05:32:36;;;;;;;44;19.9;;;;;;;0.23;100;93450.51;;;;
2021/02/10 05:33:36;;;;;;;44;19.9;;;;;;;0.23;100;93450.51;;;;
2021/02/10 05:34:37;;;;;;;44;19.9;;;;;;;0.23;100;93450.51;;;;
2021/02/10 05:35:38;;;;;;;44;19.9;;;;;;;0.23;100;93450.51;;;;
2021/02/10 05:36:46;;;;;;;44;19.9;;;;;;;0.23;100;93450.51;;;;
2021/02/10 05:37:47;;;;;;;44;19.9;;;;;;;0.23;100;93450.51;;;;
2021/02/10 05:38:47;;;;;;;44;19.9;;;;;;;0.23;100;93450.51;;;;
2021/02/10 05:39:49;;;;;;;44;19.9;;;;;;;0.23;100;93450.51;;;;
2021/02/10 05:40:50;;;;;;;44;19.9;;;;;;;0.23;100;93450.51;;;;
2021/02/10 05:41:51;;;;;;;44;19.9;;;;;;;0.23;100;93450.51;;;;
2021/02/10 05:42:52;;;;;;;44;19.9;;;;;;;0.23;100;93450.51;;;;
2021/02/10 05:44:02;;;;;;;42.6;20.1;;;;;;;0.2;100;93447.77;;;;
2021/02/10 05:45:03;;;;;;;42.6;20.1;;;;;;;0.2;100;93447.77;;;;
2021/02/10 05:46:06;;;;;;;42.6;20.1;;;;;;;0.2;100;93447.77;;;;
2021/02/10 05:47:10;;;;;;;42.6;20.1;;;;;;;0.2;100;93447.77;;;;
2021/02/10 05:48:10;;;;;;;42.6;20.1;;;;;;;0.2;100;93447.77;;;;
2021/02/10 05:49:12;;;;;;;42.6;20.1;;;;;;;0.2;100;93447.77;;;;
2021/02/10 05:50:13;;;;;;;42.6;20.1;;;;;;;0.2;100;93447.77;;;;
2021/02/10 05:51:14;;;;;;;42.6;20.1;;;;;;;0.2;100;93447.77;;;;
2021/02/10 05:52:14;;;;;;;42.6;20.1;;;;;;;0.2;100;93447.77;;;;
2021/02/10 05:53:15;;;;;;;42.6;20.1;;;;;;;0.2;100;93447.77;;;;
2021/02/10 05:54:15;;;;;;;43.3;20.4;;;;;;;0.23;100;93452.66;;;;
2021/02/10 05:55:16;;;;;;;43.3;20.4;;;;;;;0.23;100;93452.66;;;;
2021/02/10 05:56:18;;;;;;;43.3;20.4;;;;;;;0.23;100;93452.66;;;;
2021/02/10 05:57:18;;;;;;;43.3;20.4;;;;;;;0.23;100;93452.66;;;;
2021/02/10 05:58:19;;;;;;;43.3;20.4;;;;;;;0.23;100;93452.66;;;;
2021/02/10 05:59:20;;;;;;;43.3;20.4;;;;;;;0.23;100;93452.66;;;;
2021/02/10 06:00:20;;;;;;;43.3;20.4;;;;;;;0.23;100;93452.66;;;;
2021/02/10 06:01:22;;;;;;;43.3;20.4;;;;;;;0.23;100;93452.66;;;;
2021/02/10 06:02:23;;;;;;;43.3;20.4;;;;;;;0.23;100;93452.66;;;;
2021/02/10 06:03:24;;;;;;;43.3;20.4;;;;;;;0.23;100;93452.66;;;;
2021/02/10 06:04:25;;;;;;;43.3;20.4;;;;;;;0.23;100;93452.66;;;;
2021/02/10 06:05:25;;;;;;;41.9;21;;;;;;;0.27;100;93455.56;;;;
2021/02/10 06:06:28;;;;;;;41.9;21;;;;;;;0.27;100;93455.56;;;;